sensor_id;sensor_type;location;lat;lon;timestamp;pressure;altitude;pressure_sealevel;temperature;humidity
12471;BME280;36499;46.484;13.832;2024-01-25T00:02:24;93678.84;;;-0.09;100.00
12471;BME280;36499;46.484;13.832;2024-01-25T00:04:50;93686.59;;;0.02;100.00
12471;BME280;36499;46.484;13.832;2024-01-25T00:07:19;93680.44;;;0.17;100.00
12471;BME280;36499;46.484;13.832;2024-01-25T00:09:45;93694.34;;;0.13;100.00
12471;BME280;36499;46.484;13.832;2024-01-25T00:12:12;93686.88;;;0.10;100.00
12471;BME280;36499;46.484;13.832;2024-01-25T00:14:39;93683.19;;;0.14;100.00
12471;BME280;36499;46.484;13.832;2024-01-25T00:17:05;93682.69;;;0.09;100.00
12471;BME280;36499;46.484;13.832;2024-01-25T00:19:33;93675.44;;;0.16;100.00
12471;BME280;36499;46.484;13.832;2024-01-25T00:22:00;93675.53;;;0.14;100.00
12471;BME280;36499;46.484;13.832;2024-01-25T00:24:28;93670.31;;;0.16;100.00
12471;BME280;36499;46.484;13.832;2024-01-25T00:26:55;93682.59;;;0.11;100.00
12471;BME280;36499;46.484;13.832;2024-01-25T00:29:21;93717.84;;;0.18;100.00
12471;BME280;36499;46.484;13.832;2024-01-25T00:31:48;93689.88;;;0.28;100.00
12471;BME280;36499;46.484;13.832;2024-01-25T00:34:15;93683.59;;;0.21;100.00
12471;BME280;36499;46.484;13.832;2024-01-25T00:36:42;93684.41;;;0.21;100.00
12471;BME280;36499;46.484;13.832;2024-01-25T00:39:09;93676.75;;;0.21;100.00
12471;BME280;36499;46.484;13.832;2024-01-25T00:41:38;93682.28;;;0.15;100.00
12471;BME280;36499;46.484;13.832;2024-01-25T00:44:05;93685.94;;;0.24;100.00
12471;BME280;36499;46.484;13.832;2024-01-25T00:46:32;93677.72;;;0.32;100.00
12471;BME280;36499;46.484;13.832;2024-01-25T00:49:00;93688.94;;;0.42;100.00
12471;BME280;36499;46.484;13.832;2024-01-25T00:51:27;93693.34;;;0.40;100.00
12471;BME280;36499;46.484;13.832;2024-01-25T00:53:54;93683.00;;;0.41;100.00
12471;BME280;36499;46.484;13.832;2024-01-25T00:56:21;93689.75;;;0.42;100.00
12471;BME280;36499;46.484;13.832;2024-01-25T00:58:50;93690.75;;;0.52;100.00
12471;BME280;36499;46.484;13.832;2024-01-25T01:01:18;93702.19;;;0.60;100.00
12471;BME280;36499;46.484;13.832;2024-01-25T01:03:47;93710.41;;;0.39;100.00
12471;BME280;36499;46.484;13.832;2024-01-25T01:06:18;93684.19;;;0.61;100.00
12471;BME280;36499;46.484;13.832;2024-01-25T01:08:46;93697.22;;;0.45;100.00
12471;BME280;36499;46.484;13.832;2024-01-25T01:11:12;93696.31;;;0.34;100.00
12471;BME280;36499;46.484;13.832;2024-01-25T01:13:39;93679.75;;;0.39;100.00
12471;BME280;36499;46.484;13.832;2024-01-25T01:16:07;93707.38;;;0.34;100.00
12471;BME280;36499;46.484;13.832;2024-01-25T01:18:34;93696.72;;;0.40;100.00
12471;BME280;36499;46.484;13.832;2024-01-25T01:21:00;93702.00;;;0.50;100.00
12471;BME280;36499;46.484;13.832;2024-01-25T01:23:27;93703.16;;;0.46;100.00
12471;BME280;36499;46.484;13.832;2024-01-25T01:25:54;93710.09;;;0.44;100.00
12471;BME280;36499;46.484;13.832;2024-01-25T01:28:20;93692.59;;;0.50;100.00
12471;BME280;36499;46.484;13.832;2024-01-25T01:30:47;93696.56;;;0.54;100.00
12471;BME280;36499;46.484;13.832;2024-01-25T01:33:15;93698.75;;;0.48;100.00
12471;BME280;36499;46.484;13.832;2024-01-25T01:35:42;93713.47;;;0.44;100.00
12471;BME280;36499;46.484;13.832;2024-01-25T01:38:09;93717.13;;;0.53;100.00
12471;BME280;36499;46.484;13.832;2024-01-25T01:40:36;93714.88;;;0.61;100.00
12471;BME280;36499;46.484;13.832;2024-01-25T01:43:03;93725.47;;;0.68;100.00
12471;BME280;36499;46.484;13.832;2024-01-25T01:45:30;93716.97;;;0.67;100.00
12471;BME280;36499;46.484;13.832;2024-01-25T01:47:57;93716.38;;;0.64;100.00
12471;BME280;36499;46.484;13.832;2024-01-25T01:50:27;93721.22;;;0.55;100.00
12471;BME280;36499;46.484;13.832;2024-01-25T01:52:53;93715.81;;;0.47;100.00
12471;BME280;36499;46.484;13.832;2024-01-25T01:55:21;93710.09;;;0.44;100.00
12471;BME280;36499;46.484;13.832;2024-01-25T01:57:48;93712.56;;;0.69;100.00
12471;BME280;36499;46.484;13.832;2024-01-25T02:00:15;93715.34;;;0.66;100.00
12471;BME280;36499;46.484;13.832;2024-01-25T02:02:42;93703.16;;;0.70;100.00
12471;BME280;36499;46.484;13.832;2024-01-25T02:05:09;93710.78;;;0.59;100.00
12471;BME280;36499;46.484;13.832;2024-01-25T02:07:38;93708.84;;;0.62;100.00
12471;BME280;36499;46.484;13.832;2024-01-25T02:10:06;93700.34;;;0.62;100.00
12471;BME280;36499;46.484;13.832;2024-01-25T02:12:33;93708.19;;;0.35;100.00
12471;BME280;36499;46.484;13.832;2024-01-25T02:15:00;93698.00;;;0.22;100.00
12471;BME280;36499;46.484;13.832;2024-01-25T02:17:27;93690.88;;;0.14;100.00
12471;BME280;36499;46.484;13.832;2024-01-25T02:19:53;93701.91;;;0.15;100.00
12471;BME280;36499;46.484;13.832;2024-01-25T02:22:21;93693.25;;;0.29;100.00
12471;BME280;36499;46.484;13.832;2024-01-25T02:24:48;93690.84;;;0.27;100.00
12471;BME280;36499;46.484;13.832;2024-01-25T02:27:15;93684.84;;;0.39;100.00
12471;BME280;36499;46.484;13.832;2024-01-25T02:29:41;93688.03;;;0.43;100.00
12471;BME280;36499;46.484;13.832;2024-01-25T02:32:08;93689.50;;;0.58;100.00
12471;BME280;36499;46.484;13.832;2024-01-25T02:34:35;93681.28;;;0.66;100.00
12471;BME280;36499;46.484;13.832;2024-01-25T02:37:02;93677.75;;;0.55;100.00
12471;BME280;36499;46.484;13.832;2024-01-25T02:39:30;93682.16;;;0.53;100.00
12471;BME280;36499;46.484;13.832;2024-01-25T02:41:57;93678.59;;;0.43;100.00
12471;BME280;36499;46.484;13.832;2024-01-25T02:44:24;93677.91;;;0.41;100.00
12471;BME280;36499;46.484;13.832;2024-01-25T02:46:50;93693.84;;;0.45;100.00
12471;BME280;36499;46.484;13.832;2024-01-25T02:49:17;93697.22;;;0.45;100.00
12471;BME280;36499;46.484;13.832;2024-01-25T02:51:44;93700.34;;;0.62;100.00
12471;BME280;36499;46.484;13.832;2024-01-25T02:54:11;93695.91;;;0.64;100.00
12471;BME280;36499;46.484;13.832;2024-01-25T02:56:39;93700.28;;;0.50;100.00
12471;BME280;36499;46.484;13.832;2024-01-25T02:59:05;93701.41;;;0.46;100.00
12471;BME280;36499;46.484;13.832;2024-01-25T03:01:38;93704.16;;;0.56;100.00
12471;BME280;36499;46.484;13.832;2024-01-25T03:04:04;93700.91;;;0.65;100.00
12471;BME280;36499;46.484;13.832;2024-01-25T03:06:31;93698.25;;;0.67;100.00
12471;BME280;36499;46.484;13.832;2024-01-25T03:08:58;93688.72;;;0.69;100.00
12471;BME280;36499;46.484;13.832;2024-01-25T03:11:25;93680.69;;;0.86;100.00
12471;BME280;36499;46.484;13.832;2024-01-25T03:13:53;93686.78;;;0.96;100.00
12471;BME280;36499;46.484;13.832;2024-01-25T03:16:19;93709.72;;;1.09;100.00
12471;BME280;36499;46.484;13.832;2024-01-25T03:18:46;93709.34;;;1.02;100.00
12471;BME280;36499;46.484;13.832;2024-01-25T03:21:13;93696.94;;;1.09;100.00
12471;BME280;36499;46.484;13.832;2024-01-25T03:23:39;93685.59;;;1.24;100.00
12471;BME280;36499;46.484;13.832;2024-01-25T03:26:06;93674.00;;;1.07;100.00
12471;BME280;36499;46.484;13.832;2024-01-25T03:28:34;93689.03;;;1.12;100.00
12471;BME280;36499;46.484;13.832;2024-01-25T03:31:02;93676.13;;;1.13;100.00
12471;BME280;36499;46.484;13.832;2024-01-25T03:33:29;93678.09;;;1.10;100.00
12471;BME280;36499;46.484;13.832;2024-01-25T03:35:58;93698.78;;;1.07;100.00
12471;BME280;36499;46.484;13.832;2024-01-25T03:38:27;93709.31;;;0.91;100.00
12471;BME280;36499;46.484;13.832;2024-01-25T03:40:54;93692.06;;;1.17;100.00
12471;BME280;36499;46.484;13.832;2024-01-25T03:43:21;93689.47;;;1.06;100.00
12471;BME280;36499;46.484;13.832;2024-01-25T03:45:48;93687.47;;;0.98;100.00
12471;BME280;36499;46.484;13.832;2024-01-25T03:48:16;93677.91;;;0.89;100.00
12471;BME280;36499;46.484;13.832;2024-01-25T03:50:43;93686.41;;;0.89;100.00
12471;BME280;36499;46.484;13.832;2024-01-25T03:53:09;93696.47;;;0.80;100.00
12471;BME280;36499;46.484;13.832;2024-01-25T03:55:36;93687.28;;;0.77;100.00
12471;BME280;36499;46.484;13.832;2024-01-25T03:58:03;93695.66;;;0.79;100.00
12471;BME280;36499;46.484;13.832;2024-01-25T04:00:30;93694.88;;;0.90;100.00
12471;BME280;36499;46.484;13.832;2024-01-25T04:02:56;93708.13;;;0.84;100.00
12471;BME280;36499;46.484;13.832;2024-01-25T04:05:24;93713.94;;;0.86;100.00
12471;BME280;36499;46.484;13.832;2024-01-25T04:07:51;93714.00;;;0.73;100.00
12471;BME280;36499;46.484;13.832;2024-01-25T04:10:18;93707.56;;;0.92;100.00
12471;BME280;36499;46.484;13.832;2024-01-25T04:12:45;93698.88;;;0.94;100.00
12471;BME280;36499;46.484;13.832;2024-01-25T04:15:12;93703.53;;;1.00;100.00
12471;BME280;36499;46.484;13.832;2024-01-25T04:17:38;93714.84;;;1.09;100.00
12471;BME280;36499;46.484;13.832;2024-01-25T04:20:06;93713.47;;;1.16;100.00
12471;BME280;36499;46.484;13.832;2024-01-25T04:22:35;93720.56;;;1.12;100.00
12471;BME280;36499;46.484;13.832;2024-01-25T04:25:02;93717.41;;;1.09;100.00
12471;BME280;36499;46.484;13.832;2024-01-25T04:27:29;93728.13;;;1.14;100.00
12471;BME280;36499;46.484;13.832;2024-01-25T04:29:56;93741.41;;;1.19;100.00
12471;BME280;36499;46.484;13.832;2024-01-25T04:32:23;93734.78;;;1.16;100.00
12471;BME280;36499;46.484;13.832;2024-01-25T04:34:50;93740.50;;;1.20;100.00
12471;BME280;36499;46.484;13.832;2024-01-25T04:37:16;93729.22;;;1.22;100.00
12471;BME280;36499;46.484;13.832;2024-01-25T04:39:44;93741.53;;;1.17;100.00
12471;BME280;36499;46.484;13.832;2024-01-25T04:42:11;93733.84;;;1.17;100.00
12471;BME280;36499;46.484;13.832;2024-01-25T04:44:38;93744.91;;;1.18;100.00
12471;BME280;36499;46.484;13.832;2024-01-25T04:47:04;93744.78;;;1.19;100.00
12471;BME280;36499;46.484;13.832;2024-01-25T04:49:31;93739.72;;;1.07;100.00
12471;BME280;36499;46.484;13.832;2024-01-25T04:51:58;93734.72;;;1.05;100.00
12471;BME280;36499;46.484;13.832;2024-01-25T04:54:24;93739.50;;;1.10;100.00
12471;BME280;36499;46.484;13.832;2024-01-25T04:56:52;93742.19;;;1.08;100.00
12471;BME280;36499;46.484;13.832;2024-01-25T04:59:20;93744.75;;;1.08;100.00
12471;BME280;36499;46.484;13.832;2024-01-25T05:01:46;93750.56;;;1.10;100.00
12471;BME280;36499;46.484;13.832;2024-01-25T05:04:13;93748.81;;;1.11;100.00
12471;BME280;36499;46.484;13.832;2024-01-25T05:06:40;93753.00;;;1.12;100.00
12471;BME280;36499;46.484;13.832;2024-01-25T05:09:06;93751.06;;;1.15;100.00
12471;BME280;36499;46.484;13.832;2024-01-25T05:11:37;93743.16;;;1.18;100.00
12471;BME280;36499;46.484;13.832;2024-01-25T05:14:06;93745.63;;;1.20;100.00
12471;BME280;36499;46.484;13.832;2024-01-25T05:16:33;93718.59;;;1.16;100.00
12471;BME280;36499;46.484;13.832;2024-01-25T05:19:00;93731.19;;;1.19;100.00
12471;BME280;36499;46.484;13.832;2024-01-25T05:21:27;93741.84;;;1.13;100.00
12471;BME280;36499;46.484;13.832;2024-01-25T05:23:53;93731.56;;;1.26;100.00
12471;BME280;36499;46.484;13.832;2024-01-25T05:26:20;93725.34;;;1.17;100.00
12471;BME280;36499;46.484;13.832;2024-01-25T05:28:47;93720.00;;;1.20;100.00
12471;BME280;36499;46.484;13.832;2024-01-25T05:31:15;93731.44;;;1.27;100.00
12471;BME280;36499;46.484;13.832;2024-01-25T05:33:42;93716.09;;;1.27;100.00
12471;BME280;36499;46.484;13.832;2024-01-25T05:36:09;93709.13;;;1.29;100.00
12471;BME280;36499;46.484;13.832;2024-01-25T05:38:36;93710.28;;;1.36;100.00
12471;BME280;36499;46.484;13.832;2024-01-25T05:41:02;93715.97;;;1.40;100.00
12471;BME280;36499;46.484;13.832;2024-01-25T05:43:29;93720.44;;;1.49;100.00
12471;BME280;36499;46.484;13.832;2024-01-25T05:45:56;93723.81;;;1.49;100.00
12471;BME280;36499;46.484;13.832;2024-01-25T05:48:24;93719.38;;;1.40;100.00
12471;BME280;36499;46.484;13.832;2024-01-25T05:50:51;93714.94;;;1.31;100.00
12471;BME280;36499;46.484;13.832;2024-01-25T05:53:18;93721.56;;;1.34;100.00
12471;BME280;36499;46.484;13.832;2024-01-25T05:55:45;93717.94;;;1.25;100.00
12471;BME280;36499;46.484;13.832;2024-01-25T05:58:12;93729.69;;;1.28;100.00
12471;BME280;36499;46.484;13.832;2024-01-25T06:00:38;93727.75;;;1.31;100.00
12471;BME280;36499;46.484;13.832;2024-01-25T06:03:05;93719.69;;;1.25;100.00
12471;BME280;36499;46.484;13.832;2024-01-25T06:05:33;93716.91;;;1.28;100.00
12471;BME280;36499;46.484;13.832;2024-01-25T06:08:00;93713.53;;;1.27;100.00
12471;BME280;36499;46.484;13.832;2024-01-25T06:10:27;93710.97;;;1.27;100.00
12471;BME280;36499;46.484;13.832;2024-01-25T06:12:53;93716.91;;;1.28;100.00
12471;BME280;36499;46.484;13.832;2024-01-25T06:15:20;93721.09;;;1.29;100.00
12471;BME280;36499;46.484;13.832;2024-01-25T06:17:47;93723.53;;;1.30;100.00
12471;BME280;36499;46.484;13.832;2024-01-25T06:20:13;93727.75;;;1.31;100.00
12471;BME280;36499;46.484;13.832;2024-01-25T06:22:41;93728.41;;;1.33;100.00
12471;BME280;36499;46.484;13.832;2024-01-25T06:25:08;93731.91;;;1.32;100.00
12471;BME280;36499;46.484;13.832;2024-01-25T06:27:35;93722.34;;;1.23;100.00
12471;BME280;36499;46.484;13.832;2024-01-25T06:30:02;93728.06;;;1.27;100.00
12471;BME280;36499;46.484;13.832;2024-01-25T06:32:29;93735.25;;;1.21;100.00
12471;BME280;36499;46.484;13.832;2024-01-25T06:34:56;93727.47;;;1.23;100.00
12471;BME280;36499;46.484;13.832;2024-01-25T06:37:22;93723.28;;;1.22;100.00
12471;BME280;36499;46.484;13.832;2024-01-25T06:39:51;93734.16;;;1.13;100.00
12471;BME280;36499;46.484;13.832;2024-01-25T06:42:17;93730.81;;;1.12;100.00
12471;BME280;36499;46.484;13.832;2024-01-25T06:44:44;93721.47;;;1.11;100.00
12471;BME280;36499;46.484;13.832;2024-01-25T06:47:11;93717.50;;;1.07;100.00
12471;BME280;36499;46.484;13.832;2024-01-25T06:49:38;93730.47;;;1.17;100.00
12471;BME280;36499;46.484;13.832;2024-01-25T06:52:05;93732.69;;;1.21;100.00
12471;BME280;36499;46.484;13.832;2024-01-25T06:54:32;93728.41;;;1.22;100.00
12471;BME280;36499;46.484;13.832;2024-01-25T06:57:00;93723.50;;;1.19;100.00
12471;BME280;36499;46.484;13.832;2024-01-25T06:59:27;93737.94;;;1.20;100.00
12471;BME280;36499;46.484;13.832;2024-01-25T07:01:54;93745.00;;;1.16;100.00
12471;BME280;36499;46.484;13.832;2024-01-25T07:04:21;93734.16;;;1.13;100.00
12471;BME280;36499;46.484;13.832;2024-01-25T07:06:48;93745.56;;;1.09;100.00
12471;BME280;36499;46.484;13.832;2024-01-25T07:09:14;93754.53;;;1.14;100.00
12471;BME280;36499;46.484;13.832;2024-01-25T07:11:41;93746.31;;;1.22;100.00
12471;BME280;36499;46.484;13.832;2024-01-25T07:14:09;93757.50;;;1.32;100.00
12471;BME280;36499;46.484;13.832;2024-01-25T07:16:36;93756.13;;;1.28;100.00
12471;BME280;36499;46.484;13.832;2024-01-25T07:19:03;93762.97;;;1.28;100.00
12471;BME280;36499;46.484;13.832;2024-01-25T07:21:30;93759.72;;;1.26;100.00
12471;BME280;36499;46.484;13.832;2024-01-25T07:23:58;93763.25;;;1.12;100.00
12471;BME280;36499;46.484;13.832;2024-01-25T07:26:25;93768.25;;;1.13;100.00
12471;BME280;36499;46.484;13.832;2024-01-25T07:28:52;93779.91;;;1.17;100.00
12471;BME280;36499;46.484;13.832;2024-01-25T07:31:24;93773.88;;;1.18;100.00
12471;BME280;36499;46.484;13.832;2024-01-25T07:33:51;93784.13;;;1.18;100.00
12471;BME280;36499;46.484;13.832;2024-01-25T07:36:18;93785.75;;;1.19;100.00
12471;BME280;36499;46.484;13.832;2024-01-25T07:38:45;93799.75;;;1.27;100.00
12471;BME280;36499;46.484;13.832;2024-01-25T07:41:12;93804.16;;;1.25;100.00
12471;BME280;36499;46.484;13.832;2024-01-25T07:43:38;93797.41;;;1.23;100.00
12471;BME280;36499;46.484;13.832;2024-01-25T07:46:05;93794.31;;;1.31;100.00
12471;BME280;36499;46.484;13.832;2024-01-25T07:48:34;93807.84;;;1.44;100.00
12471;BME280;36499;46.484;13.832;2024-01-25T07:51:00;93811.00;;;1.48;100.00
12471;BME280;36499;46.484;13.832;2024-01-25T07:53:27;93817.28;;;1.44;100.00
12471;BME280;36499;46.484;13.832;2024-01-25T07:55:54;93827.41;;;1.45;100.00
12471;BME280;36499;46.484;13.832;2024-01-25T07:58:20;93825.22;;;1.52;100.00
12471;BME280;36499;46.484;13.832;2024-01-25T08:00:47;93814.50;;;1.47;100.00
12471;BME280;36499;46.484;13.832;2024-01-25T08:03:14;93813.88;;;1.43;100.00
12471;BME280;36499;46.484;13.832;2024-01-25T08:05:43;93821.19;;;1.37;100.00
12471;BME280;36499;46.484;13.832;2024-01-25T08:08:09;93835.41;;;1.41;100.00
12471;BME280;36499;46.484;13.832;2024-01-25T08:10:37;93831.91;;;1.42;100.00
12471;BME280;36499;46.484;13.832;2024-01-25T08:13:03;93843.19;;;1.39;100.00
12471;BME280;36499;46.484;13.832;2024-01-25T08:15:30;93838.03;;;1.52;100.00
12471;BME280;36499;46.484;13.832;2024-01-25T08:17:57;93844.94;;;1.63;100.00
12471;BME280;36499;46.484;13.832;2024-01-25T08:20:24;93827.13;;;1.61;100.00
12471;BME280;36499;46.484;13.832;2024-01-25T08:22:52;93821.31;;;1.59;100.00
12471;BME280;36499;46.484;13.832;2024-01-25T08:25:18;93819.19;;;1.53;100.00
12471;BME280;36499;46.484;13.832;2024-01-25T08:27:45;93824.72;;;1.47;100.00
12471;BME280;36499;46.484;13.832;2024-01-25T08:30:12;93832.78;;;1.53;100.00
12471;BME280;36499;46.484;13.832;2024-01-25T08:32:39;93811.81;;;1.48;100.00
12471;BME280;36499;46.484;13.832;2024-01-25T08:35:06;93828.59;;;1.52;100.00
12471;BME280;36499;46.484;13.832;2024-01-25T08:37:33;93839.88;;;1.50;100.00
12471;BME280;36499;46.484;13.832;2024-01-25T08:40:03;93847.78;;;1.47;100.00
12471;BME280;36499;46.484;13.832;2024-01-25T08:42:31;93844.94;;;1.39;100.00
12471;BME280;36499;46.484;13.832;2024-01-25T08:44:58;93842.06;;;1.43;100.00
12471;BME280;36499;46.484;13.832;2024-01-25T08:47:26;93839.16;;;1.48;100.00
12471;BME280;36499;46.484;13.832;2024-01-25T08:49:53;93845.94;;;1.49;100.00
12471;BME280;36499;46.484;13.832;2024-01-25T08:52:19;93839.56;;;1.54;100.00
12471;BME280;36499;46.484;13.832;2024-01-25T08:54:46;93845.16;;;1.60;100.00
12471;BME280;36499;46.484;13.832;2024-01-25T08:57:14;93835.88;;;1.70;100.00
12471;BME280;36499;46.484;13.832;2024-01-25T08:59:42;93851.28;;;1.81;100.00
12471;BME280;36499;46.484;13.832;2024-01-25T09:02:08;93832.91;;;1.87;100.00
12471;BME280;36499;46.484;13.832;2024-01-25T09:04:35;93842.06;;;1.78;100.00
12471;BME280;36499;46.484;13.832;2024-01-25T09:07:03;93842.06;;;1.78;100.00
12471;BME280;36499;46.484;13.832;2024-01-25T09:09:29;93867.25;;;1.84;100.00
12471;BME280;36499;46.484;13.832;2024-01-25T09:11:56;93861.25;;;1.97;100.00
12471;BME280;36499;46.484;13.832;2024-01-25T09:14:24;93866.50;;;2.06;100.00
12471;BME280;36499;46.484;13.832;2024-01-25T09:16:51;93866.06;;;2.12;100.00
12471;BME280;36499;46.484;13.832;2024-01-25T09:19:17;93875.88;;;2.18;100.00
12471;BME280;36499;46.484;13.832;2024-01-25T09:21:44;93877.72;;;2.16;100.00
12471;BME280;36499;46.484;13.832;2024-01-25T09:24:12;93872.03;;;2.24;100.00
12471;BME280;36499;46.484;13.832;2024-01-25T09:26:38;93875.69;;;2.33;100.00
12471;BME280;36499;46.484;13.832;2024-01-25T09:29:05;93867.28;;;2.42;100.00
12471;BME280;36499;46.484;13.832;2024-01-25T09:31:33;93872.88;;;2.36;100.00
12471;BME280;36499;46.484;13.832;2024-01-25T09:34:00;93874.88;;;2.32;100.00
12471;BME280;36499;46.484;13.832;2024-01-25T09:36:26;93871.84;;;2.61;100.00
12471;BME280;36499;46.484;13.832;2024-01-25T09:38:53;93877.56;;;2.64;100.00
12471;BME280;36499;46.484;13.832;2024-01-25T09:41:20;93858.81;;;2.64;100.00
12471;BME280;36499;46.484;13.832;2024-01-25T09:43:47;93866.38;;;2.54;100.00
12471;BME280;36499;46.484;13.832;2024-01-25T09:46:14;93866.63;;;2.62;100.00
12471;BME280;36499;46.484;13.832;2024-01-25T09:48:43;93868.22;;;2.74;100.00
12471;BME280;36499;46.484;13.832;2024-01-25T09:51:13;93870.81;;;2.85;100.00
12471;BME280;36499;46.484;13.832;2024-01-25T09:53:40;93874.31;;;2.96;100.00
12471;BME280;36499;46.484;13.832;2024-01-25T09:56:08;93871.97;;;3.04;100.00
12471;BME280;36499;46.484;13.832;2024-01-25T09:58:38;93865.06;;;3.27;100.00
12471;BME280;36499;46.484;13.832;2024-01-25T10:01:08;93868.44;;;3.16;100.00
12471;BME280;36499;46.484;13.832;2024-01-25T10:03:35;93872.28;;;3.21;100.00
12471;BME280;36499;46.484;13.832;2024-01-25T10:06:05;93870.06;;;3.28;100.00
12471;BME280;36499;46.484;13.832;2024-01-25T10:08:32;93850.09;;;3.32;100.00
12471;BME280;36499;46.484;13.832;2024-01-25T10:10:59;93854.63;;;3.39;100.00
12471;BME280;36499;46.484;13.832;2024-01-25T10:13:25;93853.06;;;3.48;100.00
12471;BME280;36499;46.484;13.832;2024-01-25T10:15:52;93852.91;;;3.72;100.00
12471;BME280;36499;46.484;13.832;2024-01-25T10:18:19;93840.88;;;3.93;100.00
12471;BME280;36499;46.484;13.832;2024-01-25T10:20:46;93832.00;;;4.18;100.00
12471;BME280;36499;46.484;13.832;2024-01-25T10:23:14;93819.22;;;4.28;100.00
12471;BME280;36499;46.484;13.832;2024-01-25T10:25:41;93809.56;;;4.50;100.00
12471;BME280;36499;46.484;13.832;2024-01-25T10:28:08;93801.78;;;4.62;100.00
12471;BME280;36499;46.484;13.832;2024-01-25T10:30:36;93810.75;;;4.67;100.00
12471;BME280;36499;46.484;13.832;2024-01-25T10:33:03;93805.66;;;4.86;100.00
12471;BME280;36499;46.484;13.832;2024-01-25T10:35:31;93793.78;;;5.14;100.00
12471;BME280;36499;46.484;13.832;2024-01-25T10:37:58;93793.41;;;5.29;100.00
12471;BME280;36499;46.484;13.832;2024-01-25T10:40:27;93790.06;;;5.47;100.00
12471;BME280;36499;46.484;13.832;2024-01-25T10:42:54;93777.00;;;5.49;100.00
12471;BME280;36499;46.484;13.832;2024-01-25T10:45:21;93783.25;;;5.56;100.00
12471;BME280;36499;46.484;13.832;2024-01-25T10:47:49;93783.25;;;5.56;100.00
12471;BME280;36499;46.484;13.832;2024-01-25T10:50:15;93783.69;;;5.80;100.00
12471;BME280;36499;46.484;13.832;2024-01-25T10:52:42;93783.09;;;6.06;100.00
12471;BME280;36499;46.484;13.832;2024-01-25T10:55:11;93773.72;;;6.14;100.00
12471;BME280;36499;46.484;13.832;2024-01-25T10:57:43;93773.94;;;6.40;100.00
12471;BME280;36499;46.484;13.832;2024-01-25T11:00:11;93757.75;;;6.48;96.56
12471;BME280;36499;46.484;13.832;2024-01-25T11:02:40;93761.09;;;7.40;78.57
12471;BME280;36499;46.484;13.832;2024-01-25T11:05:09;93769.66;;;7.76;73.27
12471;BME280;36499;46.484;13.832;2024-01-25T11:07:46;93762.66;;;7.51;73.73
12471;BME280;36499;46.484;13.832;2024-01-25T11:10:14;93761.56;;;7.97;65.51
12471;BME280;36499;46.484;13.832;2024-01-25T11:12:50;93755.28;;;8.43;64.44
12471;BME280;36499;46.484;13.832;2024-01-25T11:15:20;93758.19;;;8.40;66.83
12471;BME280;36499;46.484;13.832;2024-01-25T11:17:51;93760.16;;;8.03;74.94
12471;BME280;36499;46.484;13.832;2024-01-25T11:20:20;93765.88;;;7.88;78.73
12471;BME280;36499;46.484;13.832;2024-01-25T11:22:47;93762.06;;;8.18;83.70
12471;BME280;36499;46.484;13.832;2024-01-25T11:25:19;93765.16;;;7.43;82.61
12471;BME280;36499;46.484;13.832;2024-01-25T11:27:46;93752.19;;;7.25;81.77
12471;BME280;36499;46.484;13.832;2024-01-25T11:30:14;93749.47;;;7.62;67.12
12471;BME280;36499;46.484;13.832;2024-01-25T11:32:43;93747.63;;;7.90;69.65
12471;BME280;36499;46.484;13.832;2024-01-25T11:35:10;93743.53;;;8.31;73.82
12471;BME280;36499;46.484;13.832;2024-01-25T11:37:42;93741.94;;;8.56;77.25
12471;BME280;36499;46.484;13.832;2024-01-25T11:40:09;93732.78;;;8.78;75.08
12471;BME280;36499;46.484;13.832;2024-01-25T11:42:36;93731.25;;;9.01;77.58
12471;BME280;36499;46.484;13.832;2024-01-25T11:45:04;93720.00;;;9.26;75.96
12471;BME280;36499;46.484;13.832;2024-01-25T11:47:33;93716.19;;;8.54;68.14
12471;BME280;36499;46.484;13.832;2024-01-25T11:49:59;93718.78;;;8.37;75.15
12471;BME280;36499;46.484;13.832;2024-01-25T11:52:26;93712.91;;;8.26;79.24
12471;BME280;36499;46.484;13.832;2024-01-25T11:54:53;93721.78;;;7.98;77.09
12471;BME280;36499;46.484;13.832;2024-01-25T11:57:20;93717.84;;;7.86;78.49
12471;BME280;36499;46.484;13.832;2024-01-25T11:59:47;93723.53;;;7.89;86.01
12471;BME280;36499;46.484;13.832;2024-01-25T12:02:15;93712.41;;;8.23;81.87
12471;BME280;36499;46.484;13.832;2024-01-25T12:04:43;93708.06;;;8.49;79.93
12471;BME280;36499;46.484;13.832;2024-01-25T12:07:09;93705.84;;;8.37;79.18
12471;BME280;36499;46.484;13.832;2024-01-25T12:09:36;93700.28;;;8.49;80.91
12471;BME280;36499;46.484;13.832;2024-01-25T12:12:04;93695.06;;;8.41;77.47
12471;BME280;36499;46.484;13.832;2024-01-25T12:14:31;93693.34;;;8.24;78.67
12471;BME280;36499;46.484;13.832;2024-01-25T12:16:57;93693.09;;;7.91;75.67
12471;BME280;36499;46.484;13.832;2024-01-25T12:19:24;93687.88;;;8.35;77.21
12471;BME280;36499;46.484;13.832;2024-01-25T12:21:52;93685.16;;;8.11;73.97
12471;BME280;36499;46.484;13.832;2024-01-25T12:24:19;93682.06;;;8.07;75.12
12471;BME280;36499;46.484;13.832;2024-01-25T12:26:46;93687.22;;;7.81;73.88
12471;BME280;36499;46.484;13.832;2024-01-25T12:29:13;93680.75;;;8.03;75.10
12471;BME280;36499;46.484;13.832;2024-01-25T12:31:42;93683.16;;;7.79;68.50
12471;BME280;36499;46.484;13.832;2024-01-25T12:34:13;93677.75;;;7.90;69.89
12471;BME280;36499;46.484;13.832;2024-01-25T12:36:40;93682.72;;;7.83;69.14
12471;BME280;36499;46.484;13.832;2024-01-25T12:39:08;93682.06;;;8.07;73.44
12471;BME280;36499;46.484;13.832;2024-01-25T12:41:35;93685.41;;;8.00;70.95
12471;BME280;36499;46.484;13.832;2024-01-25T12:44:02;93685.03;;;7.94;67.51
12471;BME280;36499;46.484;13.832;2024-01-25T12:46:29;93683.63;;;8.00;72.26
12471;BME280;36499;46.484;13.832;2024-01-25T12:48:56;93676.16;;;8.49;74.43
12471;BME280;36499;46.484;13.832;2024-01-25T12:51:24;93670.00;;;8.50;70.73
12471;BME280;36499;46.484;13.832;2024-01-25T12:53:50;93669.41;;;8.64;72.15